Time;durP1;ratioP1;P1;durP2;ratioP2;P2;SDS_P1;SDS_P2;PMS_P1;PMS_P2;Temp;Humidity;BMP_temperature;BMP_pressure;BME280_temperature;BME280_humidity;BME280_pressure;Samples;Min_cycle;Max_cycle;Signal;HPM_P1;HPM_P2
2023/07/02 00:02:29;;;;;;;5.60;2.30;;;;;;;15.20;77.62;99857.28;5026639;28;20386;-58
2023/07/02 00:05:00;;;;;;;9.53;3.70;;;;;;;15.27;78.23;99856.13;5015580;28;20279;-59
2023/07/02 00:07:32;;;;;;;3.03;1.83;;;;;;;15.33;77.25;99847.97;5041571;28;21195;-60
2023/07/02 00:10:04;;;;;;;7.50;2.13;;;;;;;15.39;77.52;99847.69;5029938;28;20279;-60
2023/07/02 00:12:35;;;;;;;5.33;2.73;;;;;;;15.49;77.28;99849.00;5045455;28;20821;-60
2023/07/02 00:15:06;;;;;;;8.63;2.30;;;;;;;15.71;77.30;99845.50;5027348;28;20960;-59
2023/07/02 00:17:39;;;;;;;19.87;5.00;;;;;;;15.99;76.93;99841.63;5038996;28;20282;-61
2023/07/02 00:20:15;;;;;;;3.10;1.83;;;;;;;16.32;76.70;99845.31;5045362;28;20663;-58
2023/07/02 00:22:47;;;;;;;8.23;2.60;;;;;;;16.38;74.61;99834.50;5035358;28;20836;-59
2023/07/02 00:25:18;;;;;;;7.87;4.47;;;;;;;16.36;74.23;99840.78;5045506;28;20283;-59
2023/07/02 00:27:48;;;;;;;7.53;3.20;;;;;;;16.35;73.60;99844.34;5035614;28;20765;-62
2023/07/02 00:30:19;;;;;;;8.40;3.80;;;;;;;16.18;72.36;99842.50;5044293;28;20326;-59
2023/07/02 00:32:49;;;;;;;5.20;2.50;;;;;;;15.99;72.97;99841.63;5035520;28;20279;-61
2023/07/02 00:35:20;;;;;;;6.40;2.23;;;;;;;15.88;73.99;99839.47;5045568;28;20283;-60
2023/07/02 00:37:53;;;;;;;6.90;2.00;;;;;;;15.74;74.39;99827.75;5035162;28;20291;-60
2023/07/02 00:40:23;;;;;;;6.17;2.20;;;;;;;15.74;75.18;99821.63;5044848;28;20382;-61
2023/07/02 00:42:54;;;;;;;2.90;1.70;;;;;;;15.74;75.67;99832.19;5033287;28;20286;-60
2023/07/02 00:45:26;;;;;;;7.93;3.00;;;;;;;15.74;76.26;99832.19;5044483;28;20904;-60
2023/07/02 00:47:57;;;;;;;3.07;1.60;;;;;;;15.68;75.70;99827.16;5034926;28;20936;-58
2023/07/02 00:50:28;;;;;;;5.60;2.40;;;;;;;15.70;76.77;99826.19;5045215;28;20348;-60
2023/07/02 00:53:01;;;;;;;12.63;2.93;;;;;;;15.69;76.32;99818.31;5034739;28;20322;-59
2023/07/02 00:55:32;;;;;;;7.27;3.30;;;;;;;15.80;76.44;99821.38;5045392;28;20287;-61
2023/07/02 00:58:02;;;;;;;8.77;2.20;;;;;;;15.77;75.95;99826.75;5034790;28;20824;-60
2023/07/02 01:00:33;;;;;;;3.93;1.40;;;;;;;15.85;77.47;99832.56;5045147;28;20374;-61
2023/07/02 01:03:03;;;;;;;3.30;1.70;;;;;;;15.88;77.61;99824.53;5034308;28;20341;-60
2023/07/02 01:05:35;;;;;;;4.73;1.70;;;;;;;15.92;77.91;99827.84;5045310;28;20313;-59
2023/07/02 01:08:07;;;;;;;5.03;1.97;;;;;;;15.82;78.40;99819.50;5029164;28;20294;-59
2023/07/02 01:10:38;;;;;;;6.37;1.93;;;;;;;15.71;78.99;99779.63;5031290;28;20283;-57
2023/07/02 01:13:14;;;;;;;3.83;2.00;;;;;;;15.94;77.96;99829.50;5039400;28;20372;-60
2023/07/02 01:15:46;;;;;;;10.23;1.87;;;;;;;15.87;78.30;99820.16;5029517;28;20302;-60
2023/07/02 01:18:17;;;;;;;9.17;3.27;;;;;;;15.73;78.24;99809.41;5040968;28;20275;-59
2023/07/02 01:20:49;;;;;;;9.63;4.60;;;;;;;15.74;78.68;99816.38;5032428;28;20293;-56
2023/07/02 01:23:20;;;;;;;8.27;6.20;;;;;;;15.83;79.96;99826.50;5043598;28;20287;-59
2023/07/02 01:25:53;;;;;;;11.30;2.97;;;;;;;15.72;79.60;99818.22;5033751;28;20283;-57
2023/07/02 01:28:24;;;;;;;5.70;2.57;;;;;;;15.74;79.40;99833.03;5044000;28;20287;-60
2023/07/02 01:30:55;;;;;;;13.70;2.40;;;;;;;15.84;80.22;99833.47;5033930;28;20292;-59
2023/07/02 01:33:26;;;;;;;9.50;3.70;;;;;;;15.67;79.72;99788.56;5044092;28;20294;-61
2023/07/02 01:35:58;;;;;;;5.70;3.40;;;;;;;15.92;80.09;99826.06;5034266;28;20291;-59
2023/07/02 01:38:29;;;;;;;9.67;3.77;;;;;;;15.99;80.17;99825.81;5044345;28;20291;-59
2023/07/02 01:40:59;;;;;;;7.93;2.50;;;;;;;16.09;80.33;99824.47;5033830;28;20362;-58
2023/07/02 01:43:30;;;;;;;8.43;4.50;;;;;;;16.22;80.65;99828.22;5043887;28;20286;-61
2023/07/02 01:46:01;;;;;;;6.00;3.57;;;;;;;16.11;79.36;99783.06;5033254;28;20360;-62
2023/07/02 01:48:32;;;;;;;15.80;7.00;;;;;;;16.45;79.66;99821.00;5044025;28;20271;-62
2023/07/02 01:51:04;;;;;;;23.23;11.30;;;;;;;16.58;79.51;99817.72;5025495;28;20290;-60
2023/07/02 01:53:34;;;;;;;8.10;3.00;;;;;;;16.69;79.11;99809.28;5043934;28;21172;-59
2023/07/02 01:56:06;;;;;;;3.70;2.30;;;;;;;16.86;78.50;99821.69;5030840;28;20306;-61
2023/07/02 01:58:36;;;;;;;14.13;2.03;;;;;;;16.93;78.21;99824.88;5038394;28;20707;-58
2023/07/02 02:01:07;;;;;;;4.77;1.93;;;;;;;17.00;78.29;99821.03;5042182;28;20314;-59
2023/07/02 02:03:38;;;;;;;8.27;2.50;;;;;;;16.99;77.49;99814.00;5032655;28;20340;-59
2023/07/02 02:06:11;;;;;;;6.57;1.73;;;;;;;16.91;77.46;99810.91;5024396;28;20287;-59
2023/07/02 02:08:41;;;;;;;5.73;2.17;;;;;;;16.76;77.87;99812.47;5019179;28;20295;-59
2023/07/02 02:11:12;;;;;;;12.80;2.50;;;;;;;16.68;78.09;99812.88;5043867;28;20290;-61
2023/07/02 02:13:50;;;;;;;9.43;2.10;;;;;;;16.63;79.15;99817.50;5002801;28;20653;-60
2023/07/02 02:16:24;;;;;;;6.13;1.80;;;;;;;16.51;79.46;99813.66;5035784;28;20295;-59
2023/07/02 02:18:56;;;;;;;6.90;1.97;;;;;;;16.45;80.69;99813.09;5026040;28;20664;-59
2023/07/02 02:21:29;;;;;;;7.17;2.60;;;;;;;16.53;82.34;99805.69;5035466;28;20294;-59
2023/07/02 02:24:00;;;;;;;5.90;2.37;;;;;;;16.54;82.30;99807.38;5026661;28;20290;-61
2023/07/02 02:26:31;;;;;;;5.77;2.40;;;;;;;16.59;82.55;99800.09;5038536;28;20287;-61
2023/07/02 02:29:02;;;;;;;6.80;2.50;;;;;;;16.75;82.65;99801.09;5023716;28;20677;-61
2023/07/02 02:31:32;;;;;;;5.30;1.90;;;;;;;16.83;81.75;99802.53;5038144;28;20360;-62
2023/07/02 02:34:03;;;;;;;6.40;2.30;;;;;;;16.88;81.02;99795.25;5026505;28;20354;-62
2023/07/02 02:36:35;;;;;;;4.83;2.47;;;;;;;16.99;80.27;99798.19;5038018;28;20282;-60
2023/07/02 02:39:06;;;;;;;6.20;2.03;;;;;;;16.99;79.81;99792.91;5026856;28;20275;-61
2023/07/02 02:41:36;;;;;;;6.93;2.23;;;;;;;16.99;80.44;99792.91;5031713;28;20759;-59
2023/07/02 02:44:11;;;;;;;7.80;2.70;;;;;;;17.04;80.53;99790.88;5036037;28;20279;-61
2023/07/02 02:46:42;;;;;;;6.80;2.90;;;;;;;17.09;80.17;99788.00;5012014;28;20362;-61
2023/07/02 02:49:15;;;;;;;5.10;2.00;;;;;;;17.05;79.95;99787.31;5022303;28;20266;-61
2023/07/02 02:51:49;;;;;;;3.53;1.93;;;;;;;16.83;80.61;99755.88;5019332;28;20291;-60
2023/07/02 02:54:20;;;;;;;4.20;2.30;;;;;;;17.05;81.05;99792.59;5029388;28;20319;-60
2023/07/02 02:56:51;;;;;;;7.20;2.33;;;;;;;17.07;80.91;99790.72;5019149;28;20588;-61
2023/07/02 02:59:22;;;;;;;4.37;2.40;;;;;;;17.11;81.56;99797.56;5028507;28;20298;-61
2023/07/02 03:01:52;;;;;;;7.50;2.50;;;;;;;17.25;81.89;99784.50;5018982;28;20287;-61
2023/07/02 03:04:24;;;;;;;7.63;2.40;;;;;;;17.33;82.49;99785.91;5028250;28;20298;-62
2023/07/02 03:06:58;;;;;;;10.67;2.80;;;;;;;17.12;80.93;99775.50;5017966;28;20382;-59
2023/07/02 03:09:32;;;;;;;9.40;3.20;;;;;;;17.04;81.49;99796.16;5028354;28;20356;-60
2023/07/02 03:12:02;;;;;;;11.20;3.10;;;;;;;16.67;82.25;99750.47;5026260;28;20701;-60
2023/07/02 03:14:34;;;;;;;6.50;3.33;;;;;;;16.64;82.82;99755.91;5037583;28;20314;-60
2023/07/02 03:17:09;;;;;;;6.33;3.13;;;;;;;16.84;83.95;99793.66;5027856;28;20298;-59
2023/07/02 03:19:39;;;;;;;8.07;3.20;;;;;;;16.84;84.72;99796.31;5027237;28;20283;-61
2023/07/02 03:22:15;;;;;;;12.50;4.20;;;;;;;16.85;86.22;99785.69;5038022;28;20355;-61
2023/07/02 03:24:46;;;;;;;7.97;3.83;;;;;;;16.80;86.80;99788.56;5027771;28;20783;-60
2023/07/02 03:27:19;;;;;;;6.83;3.53;;;;;;;16.59;87.67;99744.72;5037290;28;20301;-61
2023/07/02 03:29:50;;;;;;;10.43;3.80;;;;;;;16.89;86.83;99781.09;5026965;28;20306;-61
2023/07/02 03:32:21;;;;;;;9.40;3.30;;;;;;;16.94;86.57;99779.06;5036465;28;20283;-61
2023/07/02 03:34:55;;;;;;;7.60;3.10;;;;;;;17.00;85.71;99784.06;5027163;28;20373;-62
2023/07/02 03:37:27;;;;;;;7.53;2.50;;;;;;;17.02;84.14;99782.19;5037796;28;20355;-62
2023/07/02 03:39:58;;;;;;;8.23;2.27;;;;;;;17.03;83.71;99774.19;5026696;28;20287;-61
2023/07/02 03:42:29;;;;;;;3.57;2.20;;;;;;;17.18;83.00;99783.13;5037632;28;20286;-61
2023/07/02 03:45:00;;;;;;;7.53;2.43;;;;;;;17.27;82.95;99786.22;5023736;28;20713;-61
2023/07/02 03:47:30;;;;;;;4.67;2.60;;;;;;;17.50;83.71;99788.53;5014433;28;20297;-61
2023/07/02 03:50:01;;;;;;;7.03;2.50;;;;;;;17.78;83.28;99789.69;5026349;28;20282;-59
2023/07/02 03:52:33;;;;;;;6.30;2.20;;;;;;;17.95;81.48;99784.38;5040481;28;20290;-62
2023/07/02 03:55:04;;;;;;;9.80;3.63;;;;;;;18.02;80.79;99785.75;5029310;28;20314;-60
2023/07/02 03:57:35;;;;;;;6.83;2.53;;;;;;;18.16;80.59;99786.78;5040407;28;20383;-61
2023/07/02 04:00:10;;;;;;;12.90;4.67;;;;;;;18.31;81.46;99785.94;5030426;28;20298;-61
2023/07/02 04:02:40;;;;;;;8.70;2.80;;;;;;;18.27;79.25;99779.09;5030856;28;20284;-61
2023/07/02 04:05:11;;;;;;;6.07;2.67;;;;;;;18.17;79.73;99776.13;5039969;28;20357;-61
2023/07/02 04:07:44;;;;;;;5.10;2.50;;;;;;;18.19;80.02;99776.88;5030030;28;20757;-61
2023/07/02 04:10:15;;;;;;;28.87;10.10;;;;;;;18.23;80.57;99788.16;5040978;28;20622;-59
2023/07/02 04:12:47;;;;;;;9.00;3.93;;;;;;;18.31;80.58;99786.78;5029552;28;20684;-61
2023/07/02 04:15:17;;;;;;;13.03;4.97;;;;;;;18.25;80.34;99781.00;5040445;28;20287;-60
2023/07/02 04:17:48;;;;;;;12.53;4.50;;;;;;;18.19;80.68;99773.38;5030544;28;20275;-62
2023/07/02 04:20:22;;;;;;;15.83;5.20;;;;;;;18.20;81.51;99777.75;5040211;28;20306;-60
2023/07/02 04:22:54;;;;;;;10.47;3.97;;;;;;;18.13;81.37;99771.94;5030299;28;20286;-62
2023/07/02 04:25:25;;;;;;;10.77;3.93;;;;;;;18.10;82.35;99767.69;5040192;28;20625;-62
2023/07/02 04:28:16;;;;;;;17.67;6.77;;;;;;;17.96;82.26;99764.94;5030396;28;20271;-61
2023/07/02 04:30:49;;;;;;;13.93;6.10;;;;;;;17.87;83.08;99771.59;5029648;28;20362;-60
2023/07/02 04:33:20;;;;;;;9.20;3.10;;;;;;;17.89;83.68;99771.50;5039970;28;20322;-61
2023/07/02 04:35:51;;;;;;;19.27;6.57;;;;;;;17.86;83.86;99769.03;5029578;28;20379;-60
2023/07/02 04:38:23;;;;;;;11.33;4.50;;;;;;;17.81;84.39;99765.78;5039899;28;20286;-60
2023/07/02 04:41:01;;;;;;;8.80;4.13;;;;;;;17.84;84.59;99776.16;5028023;28;20299;-60
2023/07/02 04:43:32;;;;;;;7.33;3.10;;;;;;;17.83;84.80;99777.97;5039313;28;20421;-61
2023/07/02 04:46:03;;;;;;;8.50;3.00;;;;;;;17.86;85.08;99769.88;5029109;28;20287;-60
2023/07/02 04:48:35;;;;;;;4.03;1.57;;;;;;;17.89;85.35;99763.56;5038076;28;20319;-61
2023/07/02 04:51:06;;;;;;;3.70;1.70;;;;;;;18.00;86.33;99766.47;5029050;28;20298;-61
2023/07/02 04:53:38;;;;;;;9.47;2.03;;;;;;;18.03;83.15;99761.03;5031890;28;20325;-59
2023/07/02 04:56:09;;;;;;;8.33;2.77;;;;;;;18.11;83.58;99761.44;5039342;28;20291;-60
2023/07/02 04:58:40;;;;;;;3.50;0.80;;;;;;;18.43;83.11;99758.78;5028390;28;20294;-61
2023/07/02 05:01:12;;;;;;;2.90;0.87;;;;;;;18.70;81.44;99758.16;5039546;28;20290;-59
2023/07/02 05:03:43;;;;;;;1.73;1.07;;;;;;;18.73;77.52;99750.88;5028146;28;20306;-61
2023/07/02 05:06:16;;;;;;;2.13;1.00;;;;;;;18.84;76.11;99758.22;5039467;28;21000;-60
2023/07/02 05:08:48;;;;;;;2.80;1.10;;;;;;;18.89;74.93;99748.19;5030001;28;20291;-59
2023/07/02 05:11:19;;;;;;;6.47;2.67;;;;;;;19.07;76.62;99753.34;5039164;28;20390;-61
2023/07/02 05:13:54;;;;;;;8.97;3.37;;;;;;;19.15;76.97;99751.13;5028035;28;20341;-61
2023/07/02 05:16:24;;;;;;;7.37;2.80;;;;;;;19.01;76.96;99743.13;5039618;28;20294;-60
2023/07/02 05:18:55;;;;;;;6.90;3.00;;;;;;;18.88;77.81;99746.50;5027773;28;20890;-59
2023/07/02 05:21:25;;;;;;;9.33;2.93;;;;;;;18.75;78.23;99742.84;5039093;28;20320;-62
2023/07/02 05:23:58;;;;;;;16.77;5.03;;;;;;;18.62;79.28;99741.84;5029299;28;20327;-60
2023/07/02 05:26:29;;;;;;;12.00;3.60;;;;;;;18.56;78.93;99747.50;5015332;28;20330;-61
2023/07/02 05:28:59;;;;;;;7.13;2.97;;;;;;;18.43;79.48;99742.91;5019621;28;20279;-60
2023/07/02 05:31:30;;;;;;;7.90;2.47;;;;;;;18.37;79.41;99747.69;5029788;28;20287;-60
2023/07/02 05:34:01;;;;;;;9.67;3.30;;;;;;;18.37;79.83;99748.56;5015737;28;20646;-58
2023/07/02 05:36:32;;;;;;;19.83;6.70;;;;;;;18.39;79.95;99744.00;5029673;28;20275;-60
2023/07/02 05:39:04;;;;;;;20.57;7.43;;;;;;;18.29;80.73;99735.75;5017184;28;20754;-62
2023/07/02 05:41:35;;;;;;;11.17;4.30;;;;;;;18.29;79.96;99734.91;5028599;28;20653;-62
2023/07/02 05:44:06;;;;;;;4.33;2.37;;;;;;;18.28;79.37;99739.34;5028292;28;20287;-60
2023/07/02 05:46:36;;;;;;;5.30;2.40;;;;;;;18.24;79.23;99729.03;5031052;28;20971;-60
2023/07/02 05:49:08;;;;;;;10.83;2.50;;;;;;;18.32;79.58;99729.44;5039052;28;20704;-62
2023/07/02 05:51:39;;;;;;;5.43;2.47;;;;;;;18.36;79.45;99735.41;5028446;28;20283;-59
2023/07/02 05:54:11;;;;;;;5.43;2.10;;;;;;;18.41;79.11;99728.91;5038925;28;20335;-60
2023/07/02 05:56:42;;;;;;;15.37;5.77;;;;;;;18.57;79.58;99728.03;5029412;28;20287;-61
2023/07/02 05:59:17;;;;;;;5.40;2.37;;;;;;;18.60;78.52;99733.16;5039159;28;20291;-61
2023/07/02 06:01:48;;;;;;;4.07;2.17;;;;;;;18.54;77.38;99729.91;5026695;28;20305;-59
2023/07/02 06:04:18;;;;;;;5.07;1.90;;;;;;;18.49;77.44;99726.69;5037331;28;20282;-61
2023/07/02 06:06:49;;;;;;;3.93;2.10;;;;;;;18.37;76.97;99738.00;5026745;28;20376;-61
2023/07/02 06:09:21;;;;;;;10.60;2.60;;;;;;;18.31;78.06;99733.03;5037760;28;20283;-61
2023/07/02 06:11:57;;;;;;;3.57;1.80;;;;;;;18.27;79.28;99736.78;5027401;28;20290;-60
2023/07/02 06:14:28;;;;;;;4.53;2.20;;;;;;;18.19;77.75;99728.44;5037147;28;20835;-60
2023/07/02 06:17:00;;;;;;;4.10;1.83;;;;;;;18.25;77.27;99738.69;5026409;28;20491;-60
2023/07/02 06:19:32;;;;;;;3.60;2.07;;;;;;;18.25;77.83;99743.97;5037866;28;20386;-61
2023/07/02 06:22:04;;;;;;;2.83;1.77;;;;;;;18.26;78.88;99743.88;5019123;28;20319;-61
2023/07/02 06:24:37;;;;;;;7.30;2.10;;;;;;;18.31;79.43;99738.31;5035263;28;20381;-61
2023/07/02 06:27:09;;;;;;;4.53;1.87;;;;;;;18.29;78.96;99740.19;5038443;28;20327;-62
2023/07/02 06:29:42;;;;;;;3.37;1.83;;;;;;;18.35;79.58;99733.72;5028027;28;20283;-62
2023/07/02 06:32:14;;;;;;;9.10;3.33;;;;;;;18.32;80.09;99740.88;5038748;28;20402;-60
2023/07/02 06:34:45;;;;;;;7.00;3.03;;;;;;;18.30;80.41;99744.56;5027876;28;20364;-60
2023/07/02 06:37:16;;;;;;;6.23;2.40;;;;;;;18.28;80.61;99743.78;5037683;28;20340;-60
2023/07/02 06:39:50;;;;;;;7.33;2.80;;;;;;;18.29;80.43;99745.47;5026941;28;20301;-59
2023/07/02 06:42:23;;;;;;;5.93;2.00;;;;;;;17.96;80.16;99669.78;5037926;28;20279;-62
2023/07/02 06:44:54;;;;;;;11.93;3.50;;;;;;;18.43;79.95;99740.28;5026916;28;20283;-61
2023/07/02 06:47:25;;;;;;;21.50;5.53;;;;;;;18.43;80.07;99742.91;5037902;28;20301;-61
2023/07/02 06:49:55;;;;;;;10.53;2.90;;;;;;;18.40;79.85;99742.25;5026992;28;20273;-61
2023/07/02 06:52:26;;;;;;;5.70;2.37;;;;;;;18.17;79.51;99714.44;5037661;28;21700;-59
2023/07/02 06:54:58;;;;;;;6.17;2.63;;;;;;;18.23;78.15;99735.25;5024786;28;20952;-59
2023/07/02 06:57:29;;;;;;;11.07;3.00;;;;;;;18.22;77.36;99744.13;5038416;28;20742;-59
2023/07/02 07:00:00;;;;;;;24.53;7.47;;;;;;;18.22;78.45;99744.13;5027951;28;20796;-61
2023/07/02 07:02:31;;;;;;;3.93;2.50;;;;;;;18.16;76.36;99750.63;5037870;28;20370;-61
2023/07/02 07:05:04;;;;;;;5.00;2.70;;;;;;;18.11;77.04;99747.38;5028088;28;20274;-61
2023/07/02 07:07:35;;;;;;;10.13;4.27;;;;;;;18.09;77.31;99749.25;5038734;28;20290;-61
2023/07/02 07:10:09;;;;;;;6.50;3.30;;;;;;;18.07;77.07;99761.69;5017464;28;20816;-61
2023/07/02 07:12:39;;;;;;;6.73;2.60;;;;;;;18.05;76.99;99753.88;5018388;28;20305;-61
2023/07/02 07:15:11;;;;;;;5.70;2.80;;;;;;;18.02;77.36;99754.03;5028643;28;20292;-62
2023/07/02 07:17:42;;;;;;;6.60;3.70;;;;;;;18.01;77.13;99752.31;5019518;28;20672;-61
2023/07/02 07:20:14;;;;;;;8.00;3.10;;;;;;;18.05;77.66;99748.56;5028857;28;20310;-61
2023/07/02 07:22:45;;;;;;;9.30;3.03;;;;;;;18.07;77.67;99752.00;5020819;28;21031;-60
2023/07/02 07:25:18;;;;;;;6.80;3.30;;;;;;;17.94;76.32;99740.38;5032584;28;20382;-61
2023/07/02 07:27:48;;;;;;;7.23;2.80;;;;;;;17.83;77.00;99748.06;5022094;28;20951;-62
2023/07/02 07:30:22;;;;;;;5.87;2.13;;;;;;;17.83;76.71;99750.69;5031892;28;20276;-61
2023/07/02 07:32:53;;;;;;;6.03;2.20;;;;;;;17.87;77.19;99754.84;5022180;28;20284;-63
2023/07/02 07:35:24;;;;;;;4.27;2.10;;;;;;;17.84;76.72;99760.31;5038453;28;20807;-62
2023/07/02 07:37:55;;;;;;;4.20;2.00;;;;;;;17.61;75.94;99749.16;5030921;28;20275;-61
2023/07/02 07:40:28;;;;;;;7.37;2.07;;;;;;;17.62;76.49;99766.75;5041324;28;20291;-61
2023/07/02 07:43:00;;;;;;;4.43;1.67;;;;;;;17.46;75.85;99760.56;5029951;28;20287;-62
2023/07/02 07:45:33;;;;;;;3.90;1.60;;;;;;;17.42;76.00;99765.16;5041008;28;20862;-60
2023/07/02 07:48:05;;;;;;;3.63;1.27;;;;;;;17.28;76.21;99756.25;5022265;28;20282;-61
2023/07/02 07:50:37;;;;;;;3.90;1.53;;;;;;;17.36;76.88;99767.25;5035734;28;20298;-60
2023/07/02 07:53:08;;;;;;;5.40;1.67;;;;;;;17.34;77.07;99740.06;5040757;28;20297;-61
2023/07/02 07:55:41;;;;;;;3.10;1.60;;;;;;;17.56;76.60;99772.34;5030089;28;20417;-62
2023/07/02 07:58:12;;;;;;;5.37;1.83;;;;;;;17.58;76.70;99770.47;5041320;28;20293;-63
2023/07/02 08:00:44;;;;;;;4.93;2.10;;;;;;;17.60;76.50;99773.88;5029956;28;20283;-62
2023/07/02 08:03:16;;;;;;;2.90;1.37;;;;;;;17.59;76.47;99780.09;5041289;28;20298;-62
2023/07/02 08:05:47;;;;;;;6.37;1.70;;;;;;;17.64;76.92;99772.78;5030492;28;20792;-60
2023/07/02 08:08:18;;;;;;;13.97;9.70;;;;;;;17.66;77.03;99765.63;5041021;28;20344;-61
2023/07/02 08:10:52;;;;;;;8.13;4.03;;;;;;;17.45;76.95;99732.44;5030441;28;20380;-58
2023/07/02 08:13:25;;;;;;;8.90;5.63;;;;;;;17.63;77.23;99768.44;5040746;28;20527;-59
2023/07/02 08:15:57;;;;;;;40.97;26.63;;;;;;;17.56;76.59;99776.78;5029967;28;20354;-61
2023/07/02 08:18:27;;;;;;;55.10;34.93;;;;;;;17.49;76.70;99770.94;5041197;28;20301;-61
2023/07/02 08:20:58;;;;;;;19.07;11.30;;;;;;;17.49;77.84;99770.09;5031363;28;20297;-60
2023/07/02 08:23:29;;;;;;;7.20;4.53;;;;;;;17.44;77.73;99765.06;5040562;28;20310;-62
2023/07/02 08:26:02;;;;;;;5.00;1.73;;;;;;;17.42;78.40;99774.84;5029174;28;20278;-61
2023/07/02 08:28:33;;;;;;;4.97;1.90;;;;;;;17.33;79.02;99762.13;5041475;28;20309;-60
2023/07/02 08:31:04;;;;;;;3.30;1.60;;;;;;;17.32;78.69;99760.41;5013791;28;20626;-61
2023/07/02 08:33:35;;;;;;;4.73;1.60;;;;;;;17.27;78.28;99765.09;5039299;28;20781;-61
2023/07/02 08:36:06;;;;;;;2.27;1.50;;;;;;;17.23;78.45;99759.97;5029761;28;20674;-61
2023/07/02 08:38:39;;;;;;;10.73;7.40;;;;;;;17.24;78.43;99766.94;5035295;28;20298;-60
2023/07/02 08:41:11;;;;;;;49.63;30.60;;;;;;;16.95;78.03;99723.59;5039928;28;20289;-59
2023/07/02 08:43:42;;;;;;;5.47;1.87;;;;;;;17.24;78.33;99772.22;5029727;28;20384;-61
2023/07/02 08:46:13;;;;;;;6.73;1.90;;;;;;;17.19;78.49;99774.25;5040253;28;21609;-61
2023/07/02 08:48:44;;;;;;;10.30;1.63;;;;;;;17.15;78.68;99777.16;5029054;28;20283;-61
2023/07/02 08:51:15;;;;;;;5.30;1.57;;;;;;;17.06;79.89;99778.47;5040017;28;20743;-61
2023/07/02 08:53:50;;;;;;;6.07;1.83;;;;;;;16.90;81.43;99774.88;5028977;28;20283;-61
2023/07/02 08:56:23;;;;;;;4.83;1.73;;;;;;;16.85;82.30;99788.31;5039553;28;20279;-60
2023/07/02 08:58:53;;;;;;;8.37;1.53;;;;;;;16.75;83.07;99792.31;5027565;28;20627;-59
2023/07/02 09:05:01;;;;;;;2.70;1.50;;;;;;;17.21;82.84;99755.69;4875998;28;20280;-60
2023/07/02 09:07:34;;;;;;;3.53;1.43;;;;;;;17.89;81.22;99776.78;4892623;29;20902;-61
2023/07/02 09:10:06;;;;;;;8.43;1.63;;;;;;;18.18;79.57;99790.19;4881565;29;20303;-58
2023/07/02 09:12:40;;;;;;;5.10;1.93;;;;;;;18.24;78.11;99773.97;4883208;29;20374;-60
2023/07/02 09:15:13;;;;;;;6.53;1.50;;;;;;;18.41;76.95;99792.41;4892731;29;20302;-62
2023/07/02 09:17:45;;;;;;;4.63;1.10;;;;;;;18.39;76.50;99791.63;4883597;29;20391;-61
2023/07/02 09:20:17;;;;;;;7.23;1.50;;;;;;;18.11;76.26;99793.16;4893191;29;20280;-62
2023/07/02 09:22:59;;;;;;;5.97;1.57;;;;;;;17.91;76.36;99798.69;4883550;29;20287;-59
2023/07/02 09:25:38;;;;;;;3.60;1.33;;;;;;;18.00;75.88;99806.13;4889488;29;20288;-61
2023/07/02 09:28:23;;;;;;;4.93;1.20;;;;;;;18.03;74.86;99813.88;4882513;29;20990;-61
2023/07/02 09:30:56;;;;;;;6.83;1.43;;;;;;;18.02;75.41;99798.97;4883300;29;20051;-61
2023/07/02 09:33:37;;;;;;;5.73;1.30;;;;;;;18.05;74.32;99819.94;4892678;29;20588;-60
2023/07/02 09:36:13;;;;;;;3.10;1.07;;;;;;;17.73;73.50;99778.53;4882441;29;20292;-61
2023/07/02 09:38:44;;;;;;;4.43;1.20;;;;;;;17.67;73.33;99783.19;4883801;29;20280;-62
2023/07/02 09:41:16;;;;;;;3.17;1.30;;;;;;;17.85;73.92;99822.81;4965780;28;20309;-59
2023/07/02 09:43:49;;;;;;;3.13;1.67;;;;;;;17.77;74.65;99817.91;5028311;28;20279;-61
2023/07/02 09:46:22;;;;;;;4.83;1.50;;;;;;;17.83;74.97;99832.63;5037761;28;20287;-61
2023/07/02 09:49:02;;;;;;;8.90;1.20;;;;;;;17.74;74.93;99838.34;5028488;28;20298;-62
2023/07/02 09:51:39;;;;;;;5.57;1.20;;;;;;;17.80;75.88;99833.63;5027407;28;20297;-61
2023/07/02 09:54:11;;;;;;;4.10;1.50;;;;;;;17.88;75.43;99825.28;5038408;28;20418;-60
2023/07/02 09:56:43;;;;;;;6.87;1.60;;;;;;;17.82;74.81;99830.88;5028458;28;20291;-62
2023/07/02 09:59:16;;;;;;;3.60;1.40;;;;;;;17.74;75.45;99841.84;5039433;28;20765;-61
2023/07/02 10:01:49;;;;;;;4.43;1.20;;;;;;;17.46;76.09;99826.59;5027910;28;20283;-62
2023/07/02 10:04:23;;;;;;;2.63;1.40;;;;;;;17.03;76.40;99826.13;5037974;28;20851;-62
2023/07/02 10:06:56;;;;;;;5.30;1.20;;;;;;;16.61;76.98;99814.09;5027687;28;21255;-61
2023/07/02 10:09:38;;;;;;;4.50;1.40;;;;;;;16.32;78.50;99829.50;5037822;28;20752;-59
2023/07/02 10:12:20;;;;;;;2.53;1.37;;;;;;;16.27;79.41;99836.78;5027761;28;20283;-62
2023/07/02 10:14:55;;;;;;;7.60;1.50;;;;;;;16.19;79.27;99852.09;5028519;28;20547;-61
2023/07/02 10:17:29;;;;;;;3.37;1.20;;;;;;;15.96;79.27;99864.53;5039110;28;20294;-60
2023/07/02 10:20:04;;;;;;;4.50;1.77;;;;;;;15.68;80.27;99864.03;5026949;28;20275;-62
2023/07/02 10:22:45;;;;;;;5.00;1.40;;;;;;;15.56;81.00;99864.56;5038133;28;20344;-60
2023/07/02 10:25:27;;;;;;;3.63;1.13;;;;;;;15.52;82.20;99864.72;5016164;28;20301;-60
2023/07/02 10:27:59;;;;;;;3.17;1.70;;;;;;;15.48;81.62;99863.13;5018995;28;20666;-63
2023/07/02 10:30:36;;;;;;;5.70;1.40;;;;;;;15.39;81.95;99863.50;5029068;28;20345;-60
2023/07/02 10:33:12;;;;;;;5.10;1.80;;;;;;;15.25;81.98;99855.31;5020425;28;20390;-61
2023/07/02 10:35:46;;;;;;;5.17;1.50;;;;;;;15.19;82.54;99871.38;5028455;28;21157;-60
2023/07/02 10:38:20;;;;;;;3.03;1.53;;;;;;;15.24;84.34;99869.41;5038556;28;20301;-62
2023/07/02 10:40:57;;;;;;;6.10;1.63;;;;;;;15.33;84.14;99884.84;5027333;28;20287;-62
2023/07/02 10:43:30;;;;;;;6.87;1.73;;;;;;;15.28;84.42;99886.81;5038894;28;20313;-63
2023/07/02 10:46:04;;;;;;;4.83;2.00;;;;;;;14.98;84.63;99842.41;5025460;28;20360;-62
2023/07/02 10:48:36;;;;;;;5.07;1.70;;;;;;;15.19;84.91;99888.03;5037799;28;20279;-62
2023/07/02 10:51:14;;;;;;;5.20;1.63;;;;;;;15.01;85.43;99863.31;5020857;28;20333;-62
2023/07/02 10:53:46;;;;;;;7.07;1.80;;;;;;;15.15;86.00;99875.06;5028108;28;20286;-60
2023/07/02 10:56:20;;;;;;;4.50;1.80;;;;;;;15.11;86.35;99869.06;5037822;28;20356;-60
2023/07/02 10:58:51;;;;;;;5.27;1.60;;;;;;;15.19;85.96;99887.19;5031558;28;20275;-59
2023/07/02 11:01:30;;;;;;;4.13;1.50;;;;;;;15.10;86.02;99884.00;5041686;28;20397;-59
2023/07/02 11:04:03;;;;;;;5.53;1.70;;;;;;;14.99;86.48;99880.94;5032104;28;20283;-62
2023/07/02 11:06:35;;;;;;;6.37;2.00;;;;;;;14.84;86.75;99856.13;5042514;28;20297;-60
2023/07/02 11:09:20;;;;;;;6.53;1.80;;;;;;;15.07;86.07;99884.13;5022912;28;20279;-62
2023/07/02 11:11:56;;;;;;;4.03;1.57;;;;;;;15.02;86.14;99891.34;5031249;28;20294;-62
2023/07/02 11:14:32;;;;;;;5.10;1.70;;;;;;;15.08;86.44;99900.78;5041940;28;20298;-60
2023/07/02 11:17:08;;;;;;;4.03;1.57;;;;;;;14.88;86.14;99862.13;5031606;28;20283;-61
2023/07/02 11:19:39;;;;;;;3.70;1.77;;;;;;;15.08;85.81;99906.91;5030810;28;20286;-61
2023/07/02 11:22:11;;;;;;;5.53;1.67;;;;;;;14.96;85.65;99902.13;5041099;28;20344;-60
2023/07/02 11:24:43;;;;;;;5.47;1.53;;;;;;;14.96;85.81;99912.66;5030876;28;20282;-60
2023/07/02 11:27:23;;;;;;;2.97;1.67;;;;;;;14.92;86.78;99918.94;5041440;28;20286;-61
2023/07/02 11:30:02;;;;;;;5.47;2.00;;;;;;;14.92;87.50;99911.03;5030784;28;20318;-59
2023/07/02 11:32:49;;;;;;;6.63;2.22;;;;;;;14.74;87.61;99901.25;5041480;28;20360;-61
2023/07/02 11:35:21;;;;;;;4.30;1.80;;;;;;;15.01;87.67;99913.31;5040205;28;20113;-60
2023/07/02 11:37:53;;;;;;;5.27;1.70;;;;;;;14.99;86.96;99899.38;5031005;28;20372;-61
2023/07/02 11:40:24;;;;;;;2.80;1.50;;;;;;;14.97;86.73;99918.75;5040689;28;21136;-62
2023/07/02 11:42:55;;;;;;;8.33;2.00;;;;;;;14.72;86.37;99914.47;5030487;28;20386;-61
2023/07/02 11:45:27;;;;;;;2.93;1.70;;;;;;;14.55;86.82;99911.63;5040524;28;20278;-60
2023/07/02 11:48:00;;;;;;;3.33;1.40;;;;;;;14.46;87.31;99907.56;5030468;28;20402;-64
2023/07/02 11:50:32;;;;;;;5.07;1.60;;;;;;;14.46;88.89;99908.41;5040955;28;20320;-61
2023/07/02 11:53:04;;;;;;;4.20;1.90;;;;;;;14.50;89.57;99909.13;5030343;28;20877;-61
2023/07/02 11:55:38;;;;;;;7.10;1.90;;;;;;;14.57;89.05;99905.41;5039498;28;20291;-60
2023/07/02 11:58:10;;;;;;;2.70;1.40;;;;;;;14.58;88.43;99907.13;5040662;28;20283;-62
2023/07/02 12:00:41;;;;;;;6.20;2.03;;;;;;;14.55;88.26;99907.25;5029990;28;20348;-61